createdAt,value
2018-06-02T00:00:53.135Z,7.83
2018-06-02T00:03:20.959Z,6.20
2018-06-02T00:05:48.766Z,4.90
2018-06-02T00:08:17.560Z,5.70
2018-06-02T00:10:45.350Z,5.33
2018-06-02T00:13:13.926Z,6.20
2018-06-02T00:15:42.560Z,5.70
2018-06-02T00:18:10.368Z,6.10
2018-06-02T00:20:38.159Z,5.93
2018-06-02T00:23:06.747Z,5.93
2018-06-02T00:25:34.558Z,5.50
2018-06-02T00:28:02.398Z,4.90
2018-06-02T00:30:30.236Z,5.00
2018-06-02T00:32:58.829Z,5.17
2018-06-02T00:35:26.613Z,5.23
2018-06-02T00:37:54.440Z,5.00
2018-06-02T00:40:23.041Z,4.63
2018-06-02T00:42:51.618Z,5.70
2018-06-02T00:45:19.441Z,5.10
2018-06-02T00:47:47.268Z,5.70
2018-06-02T00:50:15.039Z,5.43
2018-06-02T00:52:42.843Z,6.10
2018-06-02T00:55:10.639Z,5.67
2018-06-02T00:57:39.168Z,5.50
2018-06-02T01:00:07.016Z,5.70
2018-06-02T01:02:35.578Z,6.00
2018-06-02T01:05:04.244Z,6.20
2018-06-02T01:07:32.864Z,5.03
2018-06-02T01:10:00.653Z,6.47
2018-06-02T01:12:28.453Z,6.07
2018-06-02T01:14:56.257Z,6.73
2018-06-02T01:17:24.114Z,6.23
2018-06-02T01:19:51.990Z,6.80
2018-06-02T01:22:19.786Z,6.13
2018-06-02T01:24:47.560Z,5.77
2018-06-02T01:27:15.480Z,4.77
2018-06-02T01:29:43.324Z,5.00
2018-06-02T01:32:11.874Z,5.10
2018-06-02T01:34:39.653Z,5.30
2018-06-02T01:37:07.455Z,5.33
2018-06-02T01:39:35.347Z,5.43
2018-06-02T01:42:03.931Z,5.33
2018-06-02T01:44:32.725Z,5.07
2018-06-02T01:47:00.546Z,4.97
2018-06-02T01:49:29.090Z,4.67
2018-06-02T01:51:56.936Z,4.50
2018-06-02T01:54:24.769Z,4.80
2018-06-02T01:56:52.609Z,4.97
2018-06-02T01:59:20.421Z,3.90
2018-06-02T02:01:48.324Z,4.70
2018-06-02T02:04:16.119Z,4.30
2018-06-02T02:06:44.713Z,4.43
2018-06-02T02:09:12.642Z,5.00
2018-06-02T02:11:40.448Z,4.40
2018-06-02T02:14:08.262Z,4.23
2018-06-02T02:16:36.168Z,4.47
2018-06-02T02:19:04.724Z,4.63
2018-06-02T02:21:32.576Z,4.57
2018-06-02T02:24:00.377Z,5.20
2018-06-02T02:26:28.948Z,5.00
2018-06-02T02:28:56.760Z,4.23
2018-06-02T02:31:24.589Z,4.53
2018-06-02T02:33:53.144Z,5.03
2018-06-02T02:36:20.982Z,5.17
2018-06-02T02:38:48.821Z,5.20
2018-06-02T02:41:16.665Z,4.63
2018-06-02T02:43:45.236Z,5.57
2018-06-02T02:46:13.048Z,5.93
2018-06-02T02:48:40.813Z,5.13
2018-06-02T02:51:08.641Z,4.80
2018-06-02T02:53:37.200Z,5.47
2018-06-02T02:56:05.112Z,4.00
2018-06-02T02:58:32.972Z,4.70
2018-06-02T03:01:01.553Z,5.43
2018-06-02T03:03:30.111Z,5.03
2018-06-02T03:05:57.922Z,5.50
2018-06-02T03:08:25.735Z,5.07
2018-06-02T03:10:54.520Z,6.50
2018-06-02T03:13:22.402Z,6.47
2018-06-02T03:15:51.032Z,7.43
2018-06-02T03:18:18.841Z,7.57
2018-06-02T03:20:46.662Z,9.70
2018-06-02T03:23:14.461Z,10.20
2018-06-02T03:25:42.290Z,10.67
2018-06-02T03:28:10.130Z,11.57
2018-06-02T03:30:38.726Z,11.90
2018-06-02T03:33:06.553Z,13.73
2018-06-02T03:35:34.369Z,12.40
2018-06-02T03:38:02.217Z,11.37
2018-06-02T03:40:30.808Z,11.70
2018-06-02T03:42:58.630Z,11.97
2018-06-02T03:45:26.460Z,12.50
2018-06-02T03:47:54.293Z,13.03
2018-06-02T03:50:22.145Z,13.50
2018-06-02T03:52:50.717Z,12.50
2018-06-02T03:55:18.520Z,15.40
2018-06-02T03:57:46.330Z,15.90
2018-06-02T04:00:14.131Z,15.07
2018-06-02T04:02:42.760Z,14.87
2018-06-02T04:05:10.621Z,14.50
2018-06-02T04:07:38.430Z,16.70
2018-06-02T04:10:06.308Z,16.00
2018-06-02T04:12:34.908Z,14.63
2018-06-02T04:15:02.705Z,16.07
2018-06-02T04:17:30.542Z,15.97
2018-06-02T04:19:58.360Z,16.93
2018-06-02T04:22:26.162Z,14.27
2018-06-02T04:24:54.778Z,13.33
2018-06-02T04:27:22.592Z,11.37
2018-06-02T04:29:50.404Z,10.50
2018-06-02T04:32:18.208Z,9.73
2018-06-02T04:34:46.052Z,9.43
2018-06-02T04:37:13.822Z,9.13
2018-06-02T04:39:41.656Z,8.33
2018-06-02T04:42:09.465Z,9.00
2018-06-02T04:44:37.245Z,7.67
2018-06-02T04:47:05.068Z,7.37
2018-06-02T04:49:32.867Z,6.63
2018-06-02T04:52:00.665Z,7.27
2018-06-02T04:54:28.475Z,7.40
2018-06-02T04:56:56.274Z,6.87
2018-06-02T04:59:24.103Z,6.17
2018-06-02T05:01:51.927Z,7.63
2018-06-02T05:04:20.537Z,6.53
2018-06-02T05:06:48.325Z,7.73
2018-06-02T05:09:16.117Z,6.93
2018-06-02T05:11:44.263Z,7.10
2018-06-02T05:14:12.096Z,5.90
2018-06-02T05:16:39.980Z,6.40
2018-06-02T05:19:07.783Z,7.90
2018-06-02T05:21:35.584Z,8.00
2018-06-02T05:24:03.397Z,7.77
2018-06-02T05:26:31.240Z,8.23
2018-06-02T05:28:59.041Z,8.70
2018-06-02T05:31:26.839Z,8.33
2018-06-02T05:33:54.718Z,8.80
2018-06-02T05:36:22.521Z,7.53
2018-06-02T05:38:50.315Z,8.77
2018-06-02T05:41:18.890Z,9.07
2018-06-02T05:43:46.697Z,8.60
2018-06-02T05:46:14.489Z,9.27
2018-06-02T05:48:42.324Z,9.17
2018-06-02T05:51:10.127Z,9.63
2018-06-02T05:53:37.945Z,8.20
2018-06-02T05:56:05.778Z,8.70
2018-06-02T05:58:33.574Z,8.77
2018-06-02T06:01:01.404Z,9.00
2018-06-02T06:03:29.253Z,8.50
2018-06-02T06:05:57.150Z,10.00
2018-06-02T06:08:25.734Z,9.43
2018-06-02T06:10:54.353Z,8.30
2018-06-02T06:13:22.156Z,8.60
2018-06-02T06:15:49.953Z,9.37
2018-06-02T06:18:18.560Z,9.13
2018-06-02T06:20:46.404Z,9.77
2018-06-02T06:23:14.946Z,9.53
2018-06-02T06:25:42.825Z,10.13
2018-06-02T06:28:10.640Z,10.30
2018-06-02T06:30:38.456Z,8.40
2018-06-02T06:33:06.295Z,8.50
2018-06-02T06:35:34.122Z,8.83
2018-06-02T06:38:02.689Z,9.10
2018-06-02T06:40:30.540Z,10.33
2018-06-02T06:42:58.333Z,9.87
2018-06-02T06:45:26.273Z,9.57
2018-06-02T06:47:54.080Z,9.47
2018-06-02T06:50:21.876Z,10.60
2018-06-02T06:52:49.693Z,9.20
2018-06-02T06:55:18.266Z,11.30
2018-06-02T06:57:46.885Z,10.73
2018-06-02T07:00:14.718Z,10.33
2018-06-02T07:02:43.327Z,9.93
2018-06-02T07:05:11.165Z,13.17
2018-06-02T07:07:39.749Z,11.60
2018-06-02T07:10:08.356Z,13.23
2018-06-02T07:12:36.162Z,12.17
2018-06-02T07:15:04.009Z,9.90
2018-06-02T07:17:31.853Z,12.40
2018-06-02T07:19:59.640Z,9.57
2018-06-02T07:22:27.450Z,10.00
2018-06-02T07:24:55.316Z,9.87
2018-06-02T07:27:23.154Z,10.47
2018-06-02T07:29:50.945Z,9.47
2018-06-02T07:32:18.776Z,7.50
2018-06-02T07:34:46.583Z,7.80
2018-06-02T07:37:15.150Z,8.43
2018-06-02T07:39:43.003Z,8.20
2018-06-02T07:42:11.174Z,8.60
2018-06-02T07:44:38.996Z,8.43
2018-06-02T07:47:06.861Z,7.90
2018-06-02T07:49:34.672Z,10.10
2018-06-02T07:52:02.567Z,8.00
2018-06-02T07:54:31.136Z,8.90
2018-06-02T07:56:58.956Z,9.13
2018-06-02T07:59:26.762Z,9.37
2018-06-02T08:01:54.579Z,8.90
2018-06-02T08:04:22.461Z,9.40
2018-06-02T08:06:50.262Z,10.60
2018-06-02T08:09:18.060Z,10.83
2018-06-02T08:11:46.635Z,11.10
2018-06-02T08:14:15.266Z,11.27
2018-06-02T08:16:43.123Z,10.17
2018-06-02T08:19:11.024Z,9.97
2018-06-02T08:21:38.920Z,9.47
2018-06-02T08:24:07.508Z,9.33
2018-06-02T08:26:36.148Z,8.83
2018-06-02T08:29:03.985Z,10.50
2018-06-02T08:31:31.812Z,7.33
2018-06-02T08:34:00.390Z,8.30
2018-06-02T08:36:29.024Z,8.60
2018-06-02T08:38:56.912Z,9.60
2018-06-02T08:41:24.755Z,8.50
2018-06-02T08:43:52.605Z,6.87
2018-06-02T08:46:20.520Z,8.73
2018-06-02T08:48:48.366Z,7.87
2018-06-02T08:51:16.158Z,6.30
2018-06-02T08:53:44.022Z,6.90
2018-06-02T08:56:11.849Z,7.47
2018-06-02T08:58:39.713Z,7.03
2018-06-02T09:01:07.694Z,7.70
2018-06-02T09:03:35.486Z,8.30
2018-06-02T09:06:04.098Z,7.77
2018-06-02T09:08:33.904Z,8.47
2018-06-02T09:11:02.497Z,7.13
2018-06-02T09:13:31.095Z,7.17
2018-06-02T09:15:58.912Z,6.20
2018-06-02T09:18:26.709Z,7.33
2018-06-02T09:20:55.395Z,7.77
2018-06-02T09:23:24.011Z,7.57
2018-06-02T09:25:53.008Z,6.43
2018-06-02T09:28:20.910Z,8.70
2018-06-02T09:30:48.706Z,6.70
2018-06-02T09:33:17.289Z,7.20
2018-06-02T09:35:45.832Z,7.03
2018-06-02T09:38:15.422Z,6.60
2018-06-02T09:40:43.215Z,7.17
2018-06-02T09:43:11.822Z,7.07
2018-06-02T09:45:39.625Z,8.00
2018-06-02T09:48:07.427Z,9.00
2018-06-02T09:50:35.244Z,7.50
2018-06-02T09:53:03.587Z,5.83
2018-06-02T09:55:32.247Z,7.77
2018-06-02T10:01:02.036Z,8.93
2018-06-02T10:03:29.851Z,6.83
2018-06-02T10:05:57.640Z,9.73
2018-06-02T10:08:25.535Z,7.70
2018-06-02T10:10:53.414Z,7.90
2018-06-02T10:13:21.309Z,8.20
2018-06-02T10:15:49.144Z,6.90
2018-06-02T10:18:16.964Z,7.03
2018-06-02T10:20:45.548Z,7.73
2018-06-02T10:23:14.120Z,8.70
2018-06-02T10:25:41.968Z,7.30
2018-06-02T10:28:09.803Z,7.70
2018-06-02T10:30:37.631Z,7.03
2018-06-02T10:33:06.231Z,7.63
2018-06-02T10:35:34.072Z,8.40
2018-06-02T10:38:02.700Z,9.27
2018-06-02T10:40:30.774Z,7.80
2018-06-02T10:42:58.639Z,8.30
2018-06-02T10:45:27.217Z,8.57
2018-06-02T10:47:55.044Z,7.23
2018-06-02T10:50:23.606Z,9.57
2018-06-02T10:52:51.516Z,8.80
2018-06-02T10:55:20.129Z,6.80
2018-06-02T10:57:47.968Z,7.40
2018-06-02T11:00:15.771Z,7.10
2018-06-02T11:02:43.601Z,8.80
2018-06-02T11:05:11.438Z,9.07
2018-06-02T11:07:40.020Z,8.10
2018-06-02T11:10:07.857Z,9.83
2018-06-02T11:12:35.660Z,11.40
2018-06-02T11:15:04.254Z,8.60
2018-06-02T11:17:32.791Z,8.17
2018-06-02T11:20:01.435Z,8.20
2018-06-02T11:22:29.240Z,7.97
2018-06-02T11:24:57.113Z,8.30
2018-06-02T11:27:24.921Z,8.33
2018-06-02T11:29:53.507Z,10.33
2018-06-02T11:32:21.292Z,9.63
2018-06-02T11:34:49.111Z,11.80
2018-06-02T11:37:16.883Z,10.00
2018-06-02T11:39:45.454Z,9.73
2018-06-02T11:42:13.256Z,16.73
2018-06-02T11:44:41.043Z,17.97
2018-06-02T11:47:08.868Z,12.80
2018-06-02T11:49:37.440Z,10.20
2018-06-02T11:52:05.992Z,9.67
2018-06-02T11:54:33.811Z,11.23
2018-06-02T11:57:01.618Z,9.87
2018-06-02T11:59:29.457Z,9.83
2018-06-02T12:01:57.255Z,10.87
2018-06-02T12:04:25.028Z,9.20
2018-06-02T12:06:52.926Z,9.20
2018-06-02T12:09:21.508Z,9.57
2018-06-02T12:11:50.091Z,8.13
2018-06-02T12:14:18.634Z,8.60
2018-06-02T12:16:46.498Z,8.87
2018-06-02T12:19:14.313Z,8.50
2018-06-02T12:21:42.893Z,9.67
2018-06-02T12:24:11.473Z,9.57
2018-06-02T12:26:40.053Z,10.00
2018-06-02T12:29:08.641Z,9.87
2018-06-02T12:31:37.240Z,9.57
2018-06-02T12:34:05.048Z,9.13
2018-06-02T12:36:32.847Z,6.80
2018-06-02T12:39:00.691Z,8.00
2018-06-02T12:41:28.531Z,7.80
2018-06-02T12:43:56.325Z,7.00
2018-06-02T12:46:24.094Z,9.27
2018-06-02T12:48:52.005Z,7.93
2018-06-02T12:51:19.807Z,7.40
2018-06-02T12:53:47.631Z,8.47
2018-06-02T12:56:15.508Z,6.70
2018-06-02T12:58:43.314Z,7.83
2018-06-02T13:01:11.127Z,5.53
2018-06-02T13:03:38.960Z,6.73
2018-06-02T13:06:07.511Z,6.17
2018-06-02T13:08:35.532Z,6.73
2018-06-02T13:11:04.137Z,6.80
2018-06-02T13:13:31.950Z,5.03
2018-06-02T13:15:59.756Z,6.67
2018-06-02T13:18:27.616Z,7.20
2018-06-02T13:20:55.412Z,6.77
2018-06-02T13:23:23.202Z,5.33
2018-06-02T13:25:51.021Z,6.93
2018-06-02T13:28:18.975Z,6.60
2018-06-02T13:30:47.522Z,7.63
2018-06-02T13:33:15.331Z,6.50
2018-06-02T13:35:43.099Z,7.70
2018-06-02T13:38:10.940Z,8.47
2018-06-02T13:40:38.783Z,7.20
2018-06-02T13:43:06.660Z,8.40
2018-06-02T13:45:34.479Z,6.70
2018-06-02T13:48:02.299Z,7.23
2018-06-02T13:50:30.859Z,7.73
2018-06-02T13:52:58.714Z,7.83
2018-06-02T13:55:26.524Z,8.27
2018-06-02T13:57:55.079Z,9.67
2018-06-02T14:00:23.253Z,7.87
2018-06-02T14:02:51.047Z,6.57
2018-06-02T14:05:19.720Z,6.93
2018-06-02T14:07:48.288Z,6.70
2018-06-02T14:10:16.087Z,6.47
2018-06-02T14:12:43.895Z,9.13
2018-06-02T14:15:11.749Z,7.77
2018-06-02T14:17:40.198Z,7.60
2018-06-02T14:20:07.996Z,10.17
2018-06-02T14:22:36.724Z,7.57
2018-06-02T14:25:05.333Z,8.20
2018-06-02T14:27:33.178Z,9.07
2018-06-02T14:30:01.828Z,7.80
2018-06-02T14:32:29.646Z,11.20
2018-06-02T14:34:57.498Z,8.23
2018-06-02T14:37:26.118Z,7.60
2018-06-02T14:39:53.915Z,7.07
2018-06-02T14:42:21.742Z,7.73
2018-06-02T14:44:49.544Z,6.20
2018-06-02T14:47:17.363Z,6.27
2018-06-02T14:49:45.178Z,5.97
2018-06-02T14:52:12.987Z,6.60
2018-06-02T14:54:41.916Z,5.53
2018-06-02T14:57:09.744Z,5.80
2018-06-02T14:59:37.576Z,6.10
2018-06-02T15:02:05.400Z,5.80
2018-06-02T15:04:33.193Z,6.53
2018-06-02T15:07:01.016Z,5.43
2018-06-02T15:09:28.832Z,5.30
2018-06-02T15:11:56.647Z,5.80
2018-06-02T15:14:24.468Z,5.17
2018-06-02T15:16:52.267Z,5.80
2018-06-02T15:19:20.158Z,5.70
2018-06-02T15:21:48.040Z,5.40
2018-06-02T15:24:15.841Z,5.20
2018-06-02T15:26:44.418Z,3.63
2018-06-02T15:29:12.266Z,5.43
2018-06-02T15:31:40.074Z,3.90
2018-06-02T15:34:08.668Z,4.60
2018-06-02T15:36:36.534Z,4.57
2018-06-02T15:39:05.178Z,5.60
2018-06-02T15:41:32.970Z,6.43
2018-06-02T15:44:01.538Z,7.20
2018-06-02T15:46:29.372Z,6.27
2018-06-02T15:48:58.078Z,6.50
2018-06-02T15:51:25.876Z,5.03
2018-06-02T15:53:53.734Z,5.90
2018-06-02T15:56:22.329Z,5.27
2018-06-02T15:58:50.421Z,7.17
2018-06-02T16:01:18.312Z,6.70
2018-06-02T16:03:46.229Z,8.50
2018-06-02T16:06:14.053Z,7.70
2018-06-02T16:08:42.085Z,7.30
2018-06-02T16:11:10.021Z,7.10
2018-06-02T16:13:38.655Z,6.03
2018-06-02T16:16:06.455Z,8.27
2018-06-02T16:18:34.258Z,6.90
2018-06-02T16:21:02.111Z,7.50
2018-06-02T16:23:29.968Z,7.23
2018-06-02T16:25:58.559Z,7.23
2018-06-02T16:28:27.131Z,7.20
2018-06-02T16:30:55.823Z,7.00
2018-06-02T16:33:24.414Z,8.17
2018-06-02T16:35:52.262Z,7.17
2018-06-02T16:38:20.885Z,7.53
2018-06-02T16:40:49.523Z,5.40
2018-06-02T16:43:17.336Z,6.03
2018-06-02T16:45:45.104Z,6.00
2018-06-02T16:48:12.928Z,7.07
2018-06-02T16:50:42.177Z,6.03
2018-06-02T16:53:10.018Z,6.30
2018-06-02T16:55:37.821Z,6.10
2018-06-02T16:58:05.669Z,5.83
2018-06-02T17:00:33.470Z,5.90
2018-06-02T17:03:01.324Z,6.27
2018-06-02T17:05:29.110Z,6.53
2018-06-02T17:07:56.908Z,6.17
2018-06-02T17:10:24.920Z,5.50
2018-06-02T17:12:53.603Z,4.87
2018-06-02T17:15:21.399Z,4.43
2018-06-02T17:17:50.045Z,5.07
2018-06-02T17:20:17.842Z,6.33
2018-06-02T17:22:45.656Z,4.90
2018-06-02T17:25:13.531Z,4.20
2018-06-02T17:27:41.360Z,4.63
2018-06-02T17:30:09.930Z,5.83
2018-06-02T17:32:38.519Z,4.00
2018-06-02T17:35:07.107Z,3.83
2018-06-02T17:37:35.670Z,4.43
2018-06-02T17:40:03.538Z,3.70
2018-06-02T17:42:31.353Z,3.73
2018-06-02T17:44:59.196Z,5.03
2018-06-02T17:47:26.994Z,3.60
2018-06-02T17:49:54.865Z,2.97
2018-06-02T17:52:22.665Z,3.00
2018-06-02T17:54:50.474Z,3.70
2018-06-02T17:57:18.281Z,4.10
2018-06-02T17:59:46.134Z,3.90
2018-06-02T18:02:13.985Z,3.40
2018-06-02T18:04:41.797Z,3.10
2018-06-02T18:07:10.416Z,3.00
2018-06-02T18:09:38.269Z,2.77
2018-06-02T18:12:06.087Z,2.87
2018-06-02T18:14:33.872Z,2.77
2018-06-02T18:17:01.930Z,2.83
2018-06-02T18:19:29.823Z,2.80
2018-06-02T18:21:58.410Z,4.40
2018-06-02T18:24:27.018Z,3.43
2018-06-02T18:26:54.828Z,4.10
2018-06-02T18:29:22.719Z,3.87
2018-06-02T18:31:51.286Z,2.77
2018-06-02T18:34:19.107Z,3.43
2018-06-02T18:36:46.917Z,2.97
2018-06-02T18:39:14.697Z,2.53
2018-06-02T18:41:43.243Z,2.53
2018-06-02T18:44:11.085Z,3.80
2018-06-02T18:46:38.873Z,3.47
2018-06-02T18:49:06.672Z,3.40
2018-06-02T18:51:36.367Z,3.73
2018-06-02T18:54:04.185Z,2.50
2018-06-02T18:56:32.806Z,3.37
2018-06-02T18:59:00.612Z,3.63
2018-06-02T19:01:29.198Z,3.57
2018-06-02T19:03:57.038Z,3.20
2018-06-02T19:06:25.593Z,2.73
2018-06-02T19:08:53.398Z,4.93
2018-06-02T19:11:22.019Z,3.63
2018-06-02T19:13:49.891Z,3.37
2018-06-02T19:16:17.735Z,5.83
2018-06-02T19:18:45.813Z,6.03
2018-06-02T19:21:13.641Z,4.80
2018-06-02T19:23:42.195Z,3.80
2018-06-02T19:26:10.021Z,3.00
2018-06-02T19:28:37.837Z,2.90
2018-06-02T19:31:06.612Z,2.87
2018-06-02T19:33:34.583Z,3.70
2018-06-02T19:36:02.397Z,3.10
2018-06-02T19:38:30.990Z,3.33
2018-06-02T19:40:59.081Z,3.10
2018-06-02T19:43:26.875Z,2.93
2018-06-02T19:45:54.657Z,3.17
2018-06-02T19:48:22.495Z,3.17
2018-06-02T19:50:50.318Z,2.53
2018-06-02T19:53:18.112Z,2.47
2018-06-02T19:55:46.034Z,3.30
2018-06-02T19:58:14.663Z,4.00
2018-06-02T20:00:42.432Z,3.80
2018-06-02T20:03:10.264Z,5.20
2018-06-02T20:05:38.077Z,3.60
2018-06-02T20:08:06.058Z,3.53
2018-06-02T20:10:33.863Z,3.43
2018-06-02T20:13:01.677Z,3.20
2018-06-02T20:15:29.501Z,3.93
2018-06-02T20:17:57.319Z,25.13
2018-06-02T20:20:25.092Z,20.77
2018-06-02T20:22:52.932Z,12.93
2018-06-02T20:25:20.723Z,5.83
2018-06-02T20:27:48.527Z,4.47
2018-06-02T20:30:16.378Z,3.53
2018-06-02T20:32:44.187Z,3.87
2018-06-02T20:35:11.995Z,4.90
2018-06-02T20:37:40.595Z,2.97
2018-06-02T20:40:08.406Z,3.57
2018-06-02T20:42:36.244Z,3.30
2018-06-02T20:45:04.985Z,3.90
2018-06-02T20:47:32.843Z,3.73
2018-06-02T20:50:01.532Z,3.40
2018-06-02T20:52:29.372Z,3.30
2018-06-02T20:54:57.181Z,3.60
2018-06-02T20:57:25.711Z,1.80
2018-06-02T20:59:54.425Z,2.63
2018-06-02T21:02:22.249Z,4.10
2018-06-02T21:04:50.035Z,2.90
2018-06-02T21:07:17.851Z,2.70
2018-06-02T21:09:46.389Z,3.90
2018-06-02T21:12:14.179Z,2.77
2018-06-02T21:14:42.758Z,2.80
2018-06-02T21:17:10.598Z,2.93
2018-06-02T21:19:38.387Z,2.70
2018-06-02T21:22:06.293Z,3.17
2018-06-02T21:24:34.096Z,3.00
2018-06-02T21:27:01.865Z,3.63
2018-06-02T21:29:29.731Z,3.30
2018-06-02T21:31:57.534Z,3.20
2018-06-02T21:34:26.075Z,2.07
2018-06-02T21:36:54.014Z,2.15
2018-06-02T21:39:21.811Z,2.70
2018-06-02T21:41:49.585Z,2.47
2018-06-02T21:44:17.414Z,2.72
2018-06-02T21:46:45.212Z,2.73
2018-06-02T21:49:13.017Z,2.60
2018-06-02T21:51:40.839Z,3.12
2018-06-02T21:54:08.626Z,3.30
2018-06-02T21:56:37.164Z,2.40
2018-06-02T21:59:04.980Z,4.70
2018-06-02T22:01:33.527Z,5.30
2018-06-02T22:04:01.313Z,12.33
2018-06-02T22:06:29.201Z,17.07
2018-06-02T22:08:57.896Z,21.40
2018-06-02T22:11:26.408Z,19.30
2018-06-02T22:13:54.342Z,16.93
2018-06-02T22:16:23.012Z,14.40
2018-06-02T22:18:50.819Z,13.60
2018-06-02T22:21:18.665Z,11.73
2018-06-02T22:23:46.493Z,11.83
2018-06-02T22:26:14.360Z,8.80
2018-06-02T22:28:42.220Z,10.30
2018-06-02T22:31:10.050Z,9.40
2018-06-02T22:33:37.831Z,8.00
2018-06-02T22:36:05.684Z,6.60
2018-06-02T22:38:33.551Z,6.40
2018-06-02T22:41:01.336Z,6.90
2018-06-02T22:43:29.170Z,5.63
2018-06-02T22:45:57.448Z,6.63
2018-06-02T22:48:25.254Z,5.00
2018-06-02T22:50:53.061Z,4.37
2018-06-02T22:53:20.941Z,4.30
2018-06-02T22:55:48.895Z,3.77
2018-06-02T22:58:16.836Z,3.60
2018-06-02T23:00:44.765Z,3.90
2018-06-02T23:03:12.605Z,2.70
2018-06-02T23:05:40.523Z,2.80
2018-06-02T23:08:08.430Z,2.73
2018-06-02T23:10:36.281Z,3.93
2018-06-02T23:13:04.847Z,4.27
2018-06-02T23:15:32.721Z,3.03
2018-06-02T23:18:01.248Z,2.20
2018-06-02T23:20:29.079Z,3.40
2018-06-02T23:22:57.678Z,2.93
2018-06-02T23:25:25.447Z,3.30
2018-06-02T23:27:53.259Z,2.47
2018-06-02T23:30:21.085Z,2.47
2018-06-02T23:32:48.915Z,2.50
2018-06-02T23:35:17.469Z,1.97
2018-06-02T23:37:45.291Z,2.17
2018-06-02T23:40:13.089Z,2.10
2018-06-02T23:42:40.877Z,2.40
2018-06-02T23:45:08.704Z,2.97
2018-06-02T23:47:36.507Z,2.57
2018-06-02T23:50:04.334Z,2.23
2018-06-02T23:52:32.151Z,2.43
2018-06-02T23:54:59.958Z,3.40
2018-06-02T23:57:27.749Z,2.00
2018-06-02T23:59:55.588Z,2.10
